sensor_id;sensor_type;location;lat;lon;timestamp;pressure;altitude;pressure_sealevel;temperature;humidity
6094;BME280;19964;42.060;24.700;2023-04-26T00:02:17;96589.50;;;10.85;100.00
6094;BME280;19964;42.060;24.700;2023-04-26T00:04:43;96578.41;;;10.89;100.00
6094;BME280;19964;42.060;24.700;2023-04-26T00:07:11;96582.56;;;10.90;100.00
6094;BME280;19964;42.060;24.700;2023-04-26T00:09:41;96585.56;;;10.77;100.00
6094;BME280;19964;42.060;24.700;2023-04-26T00:12:09;96576.44;;;10.69;100.00
6094;BME280;19964;42.060;24.700;2023-04-26T00:14:36;96576.00;;;10.77;100.00
6094;BME280;19964;42.060;24.700;2023-04-26T00:17:04;96548.47;;;10.71;100.00
6094;BME280;19964;42.060;24.700;2023-04-26T00:19:30;96568.59;;;10.96;100.00
6094;BME280;19964;42.060;24.700;2023-04-26T00:21:57;96532.47;;;10.74;100.00
6094;BME280;19964;42.060;24.700;2023-04-26T00:24:24;96561.59;;;10.97;100.00
6094;BME280;19964;42.060;24.700;2023-04-26T00:26:53;96557.75;;;10.99;100.00
6094;BME280;19964;42.060;24.700;2023-04-26T00:29:20;96556.47;;;11.02;100.00
6094;BME280;19964;42.060;24.700;2023-04-26T00:31:47;96559.81;;;11.02;100.00
6094;BME280;19964;42.060;24.700;2023-04-26T00:34:14;96555.69;;;11.06;100.00
6094;BME280;19964;42.060;24.700;2023-04-26T00:36:41;96555.69;;;11.01;100.00
6094;BME280;19964;42.060;24.700;2023-04-26T00:39:08;96549.50;;;11.07;100.00
6094;BME280;19964;42.060;24.700;2023-04-26T00:41:35;96543.50;;;11.02;100.00
6094;BME280;19964;42.060;24.700;2023-04-26T00:44:03;96531.56;;;11.01;100.00
6094;BME280;19964;42.060;24.700;2023-04-26T00:46:30;96452.25;;;10.48;100.00
6094;BME280;19964;42.060;24.700;2023-04-26T00:48:57;96529.78;;;11.06;100.00
6094;BME280;19964;42.060;24.700;2023-04-26T00:51:24;96525.66;;;11.05;100.00
6094;BME280;19964;42.060;24.700;2023-04-26T00:53:52;96509.75;;;10.92;100.00
6094;BME280;19964;42.060;24.700;2023-04-26T00:56:20;96527.69;;;11.03;100.00
6094;BME280;19964;42.060;24.700;2023-04-26T00:58:48;96523.06;;;11.10;100.00
6094;BME280;19964;42.060;24.700;2023-04-26T01:01:16;96442.75;;;10.58;100.00
6094;BME280;19964;42.060;24.700;2023-04-26T01:03:44;96514.44;;;10.95;100.00
6094;BME280;19964;42.060;24.700;2023-04-26T01:06:11;96516.75;;;10.96;100.00
6094;BME280;19964;42.060;24.700;2023-04-26T01:08:38;96512.31;;;10.87;100.00
6094;BME280;19964;42.060;24.700;2023-04-26T01:11:06;96505.31;;;10.82;100.00
6094;BME280;19964;42.060;24.700;2023-04-26T01:13:33;96488.31;;;10.59;100.00
6094;BME280;19964;42.060;24.700;2023-04-26T01:16:00;96504.97;;;10.73;100.00
6094;BME280;19964;42.060;24.700;2023-04-26T01:18:29;96505.50;;;10.75;100.00
6094;BME280;19964;42.060;24.700;2023-04-26T01:20:56;96498.00;;;10.79;100.00
6094;BME280;19964;42.060;24.700;2023-04-26T01:23:24;96499.28;;;10.71;100.00
6094;BME280;19964;42.060;24.700;2023-04-26T01:25:51;96501.78;;;10.61;100.00
6094;BME280;19964;42.060;24.700;2023-04-26T01:28:20;96483.56;;;10.46;100.00
6094;BME280;19964;42.060;24.700;2023-04-26T01:30:47;96504.31;;;10.51;100.00
6094;BME280;19964;42.060;24.700;2023-04-26T01:33:14;96489.47;;;10.42;100.00
6094;BME280;19964;42.060;24.700;2023-04-26T01:35:41;96490.00;;;10.44;100.00
6094;BME280;19964;42.060;24.700;2023-04-26T01:38:08;96487.66;;;10.37;100.00
6094;BME280;19964;42.060;24.700;2023-04-26T01:40:36;96480.16;;;10.41;100.00
6094;BME280;19964;42.060;24.700;2023-04-26T01:43:03;96478.38;;;10.41;100.00
6094;BME280;19964;42.060;24.700;2023-04-26T01:45:30;96469.00;;;10.35;100.00
6094;BME280;19964;42.060;24.700;2023-04-26T01:47:57;96400.06;;;9.93;100.00
6094;BME280;19964;42.060;24.700;2023-04-26T01:50:24;96469.53;;;10.37;100.00
6094;BME280;19964;42.060;24.700;2023-04-26T01:52:51;96472.59;;;10.34;100.00
6094;BME280;19964;42.060;24.700;2023-04-26T01:55:18;96484.22;;;10.32;100.00
6094;BME280;19964;42.060;24.700;2023-04-26T01:57:46;96484.44;;;10.25;100.00
6094;BME280;19964;42.060;24.700;2023-04-26T02:00:13;96476.06;;;10.13;100.00
6094;BME280;19964;42.060;24.700;2023-04-26T02:02:40;96481.03;;;10.20;100.00
6094;BME280;19964;42.060;24.700;2023-04-26T02:05:09;96473.28;;;10.20;100.00
6094;BME280;19964;42.060;24.700;2023-04-26T02:07:36;96477.13;;;10.17;100.00
6094;BME280;19964;42.060;24.700;2023-04-26T02:10:04;96480.88;;;10.05;100.00
6094;BME280;19964;42.060;24.700;2023-04-26T02:12:30;96482.88;;;9.98;100.00
6094;BME280;19964;42.060;24.700;2023-04-26T02:14:59;96469.69;;;9.99;100.00
6094;BME280;19964;42.060;24.700;2023-04-26T02:17:25;96466.28;;;9.94;100.00
6094;BME280;19964;42.060;24.700;2023-04-26T02:19:53;96485.44;;;9.93;100.00
6094;BME280;19964;42.060;24.700;2023-04-26T02:22:20;96486.97;;;9.94;100.00
6094;BME280;19964;42.060;24.700;2023-04-26T02:24:49;96487.19;;;9.87;100.00
6094;BME280;19964;42.060;24.700;2023-04-26T02:27:16;96477.63;;;9.87;100.00
6094;BME280;19964;42.060;24.700;2023-04-26T02:29:43;96486.50;;;9.97;100.00
6094;BME280;19964;42.060;24.700;2023-04-26T02:32:11;96488.88;;;10.03;100.00
6094;BME280;19964;42.060;24.700;2023-04-26T02:34:38;96472.78;;;9.96;100.00
6094;BME280;19964;42.060;24.700;2023-04-26T02:37:05;96486.13;;;10.10;100.00
6094;BME280;19964;42.060;24.700;2023-04-26T02:39:33;96488.50;;;10.16;100.00
6094;BME280;19964;42.060;24.700;2023-04-26T02:42:00;96486.50;;;10.23;100.00
6094;BME280;19964;42.060;24.700;2023-04-26T02:44:28;96495.00;;;10.19;100.00
6094;BME280;19964;42.060;24.700;2023-04-26T02:46:55;96420.31;;;9.69;100.00
6094;BME280;19964;42.060;24.700;2023-04-26T02:49:23;96501.75;;;10.20;100.00
6094;BME280;19964;42.060;24.700;2023-04-26T02:51:50;96509.63;;;10.35;100.00
6094;BME280;19964;42.060;24.700;2023-04-26T02:54:17;96511.19;;;10.36;100.00
6094;BME280;19964;42.060;24.700;2023-04-26T02:56:43;96504.44;;;10.35;100.00
6094;BME280;19964;42.060;24.700;2023-04-26T02:59:10;96502.72;;;10.45;100.00
6094;BME280;19964;42.060;24.700;2023-04-26T03:01:37;96511.88;;;10.58;100.00
6094;BME280;19964;42.060;24.700;2023-04-26T03:04:03;96514.19;;;10.59;100.00
6094;BME280;19964;42.060;24.700;2023-04-26T03:06:32;96509.09;;;10.69;100.00
6094;BME280;19964;42.060;24.700;2023-04-26T03:08:58;96490.75;;;10.76;100.00
6094;BME280;19964;42.060;24.700;2023-04-26T03:11:25;96495.22;;;10.86;100.00
6094;BME280;19964;42.060;24.700;2023-04-26T03:13:52;96503.25;;;10.89;100.00
6094;BME280;19964;42.060;24.700;2023-04-26T03:16:19;96500.41;;;10.86;100.00
6094;BME280;19964;42.060;24.700;2023-04-26T03:18:46;96492.38;;;10.87;100.00
6094;BME280;19964;42.060;24.700;2023-04-26T03:21:12;96490.06;;;10.91;100.00
6094;BME280;19964;42.060;24.700;2023-04-26T03:23:41;96491.44;;;10.61;100.00
6094;BME280;19964;42.060;24.700;2023-04-26T03:26:07;96491.75;;;10.33;100.00
6094;BME280;19964;42.060;24.700;2023-04-26T03:28:34;96494.44;;;10.12;100.00
6094;BME280;19964;42.060;24.700;2023-04-26T03:31:01;96496.22;;;10.11;100.00
6094;BME280;19964;42.060;24.700;2023-04-26T03:33:29;96498.50;;;10.08;100.00
6094;BME280;19964;42.060;24.700;2023-04-26T03:35:56;96508.59;;;10.09;100.00
6094;BME280;19964;42.060;24.700;2023-04-26T03:38:23;96503.59;;;9.98;100.00
6094;BME280;19964;42.060;24.700;2023-04-26T03:40:51;96502.91;;;9.80;100.00
6094;BME280;19964;42.060;24.700;2023-04-26T03:43:18;96507.47;;;9.73;100.00
6094;BME280;19964;42.060;24.700;2023-04-26T03:45:46;96507.44;;;9.68;100.00
6094;BME280;19964;42.060;24.700;2023-04-26T03:48:14;96515.22;;;9.73;100.00
6094;BME280;19964;42.060;24.700;2023-04-26T03:50:41;96521.22;;;9.52;100.00
6094;BME280;19964;42.060;24.700;2023-04-26T03:53:09;96528.13;;;9.47;100.00
6094;BME280;19964;42.060;24.700;2023-04-26T03:55:36;96524.22;;;9.44;100.00
6094;BME280;19964;42.060;24.700;2023-04-26T03:58:04;96502.41;;;9.35;100.00
6094;BME280;19964;42.060;24.700;2023-04-26T04:00:32;96524.28;;;9.49;100.00
6094;BME280;19964;42.060;24.700;2023-04-26T04:02:59;96516.66;;;9.38;100.00
6094;BME280;19964;42.060;24.700;2023-04-26T04:05:25;96518.94;;;9.34;100.00
6094;BME280;19964;42.060;24.700;2023-04-26T04:07:52;96524.72;;;9.41;100.00
6094;BME280;19964;42.060;24.700;2023-04-26T04:10:20;96530.72;;;9.47;100.00
6094;BME280;19964;42.060;24.700;2023-04-26T04:12:48;96521.16;;;9.47;100.00
6094;BME280;19964;42.060;24.700;2023-04-26T04:15:17;96525.00;;;9.45;100.00
6094;BME280;19964;42.060;24.700;2023-04-26T04:17:44;96526.22;;;9.59;100.00
6094;BME280;19964;42.060;24.700;2023-04-26T04:20:11;96507.50;;;9.52;100.00
6094;BME280;19964;42.060;24.700;2023-04-26T04:22:38;96520.75;;;9.82;100.00
6094;BME280;19964;42.060;24.700;2023-04-26T04:25:06;96520.72;;;10.04;100.00
6094;BME280;19964;42.060;24.700;2023-04-26T04:27:33;96521.25;;;10.32;100.00
6094;BME280;19964;42.060;24.700;2023-04-26T04:30:01;96503.75;;;10.44;100.00
6094;BME280;19964;42.060;24.700;2023-04-26T04:32:30;96533.03;;;10.87;100.00
6094;BME280;19964;42.060;24.700;2023-04-26T04:34:58;96532.78;;;11.35;100.00
6094;BME280;19964;42.060;24.700;2023-04-26T04:37:25;96549.84;;;11.83;100.00
6094;BME280;19964;42.060;24.700;2023-04-26T04:39:53;96561.06;;;12.08;100.00
6094;BME280;19964;42.060;24.700;2023-04-26T04:42:20;96555.16;;;12.38;100.00
6094;BME280;19964;42.060;24.700;2023-04-26T04:44:46;96553.84;;;12.35;100.00
6094;BME280;19964;42.060;24.700;2023-04-26T04:47:14;96545.78;;;12.72;100.00
6094;BME280;19964;42.060;24.700;2023-04-26T04:49:43;96567.09;;;12.79;100.00
6094;BME280;19964;42.060;24.700;2023-04-26T04:52:11;96555.69;;;12.50;100.00
6094;BME280;19964;42.060;24.700;2023-04-26T04:54:38;96546.06;;;12.45;100.00
6094;BME280;19964;42.060;24.700;2023-04-26T04:57:05;96551.50;;;12.49;100.00
6094;BME280;19964;42.060;24.700;2023-04-26T04:59:32;96549.97;;;12.48;100.00
6094;BME280;19964;42.060;24.700;2023-04-26T05:02:02;96527.34;;;12.23;100.00
6094;BME280;19964;42.060;24.700;2023-04-26T05:04:28;96543.44;;;12.35;100.00
6094;BME280;19964;42.060;24.700;2023-04-26T05:06:59;96545.81;;;12.42;100.00
6094;BME280;19964;42.060;24.700;2023-04-26T05:09:26;96550.97;;;12.27;100.00
6094;BME280;19964;42.060;24.700;2023-04-26T05:11:53;96538.50;;;12.24;100.00
6094;BME280;19964;42.060;24.700;2023-04-26T05:14:20;96537.22;;;12.36;100.00
6094;BME280;19964;42.060;24.700;2023-04-26T05:16:47;96536.97;;;12.43;100.00
6094;BME280;19964;42.060;24.700;2023-04-26T05:19:14;96542.94;;;12.53;100.00
6094;BME280;19964;42.060;24.700;2023-04-26T05:21:40;96541.88;;;12.44;100.00
6094;BME280;19964;42.060;24.700;2023-04-26T05:24:08;96540.59;;;12.37;100.00
6094;BME280;19964;42.060;24.700;2023-04-26T05:26:35;96544.75;;;12.48;100.00
6094;BME280;19964;42.060;24.700;2023-04-26T05:29:02;96543.19;;;12.57;100.00
6094;BME280;19964;42.060;24.700;2023-04-26T05:31:29;96552.81;;;12.62;99.32
6094;BME280;19964;42.060;24.700;2023-04-26T05:33:55;96551.25;;;12.81;100.00
6094;BME280;19964;42.060;24.700;2023-04-26T05:36:22;96532.25;;;12.80;100.00
6094;BME280;19964;42.060;24.700;2023-04-26T05:38:49;96543.44;;;13.01;100.00
6094;BME280;19964;42.060;24.700;2023-04-26T05:41:17;96552.03;;;13.06;99.17
6094;BME280;19964;42.060;24.700;2023-04-26T05:43:44;96551.72;;;13.18;97.10
6094;BME280;19964;42.060;24.700;2023-04-26T05:46:11;96563.91;;;13.32;95.75
6094;BME280;19964;42.060;24.700;2023-04-26T05:48:38;96558.25;;;13.10;94.32
6094;BME280;19964;42.060;24.700;2023-04-26T05:51:05;96535.59;;;13.11;96.24
6094;BME280;19964;42.060;24.700;2023-04-26T05:53:32;96552.44;;;13.44;94.68
6094;BME280;19964;42.060;24.700;2023-04-26T05:55:58;96554.25;;;13.43;92.98
6094;BME280;19964;42.060;24.700;2023-04-26T06:01:55;96548.66;;;14.18;92.30
6094;BME280;19964;42.060;24.700;2023-04-26T06:04:22;96551.63;;;14.46;87.89
6094;BME280;19964;42.060;24.700;2023-04-26T06:06:49;96557.56;;;14.85;85.30
6094;BME280;19964;42.060;24.700;2023-04-26T06:09:15;96475.50;;;14.77;85.50
6094;BME280;19964;42.060;24.700;2023-04-26T06:11:42;96565.53;;;15.27;78.57
6094;BME280;19964;42.060;24.700;2023-04-26T06:14:09;96555.22;;;15.41;79.72
6094;BME280;19964;42.060;24.700;2023-04-26T06:16:36;96561.59;;;15.95;77.68
6094;BME280;19964;42.060;24.700;2023-04-26T06:19:04;96556.19;;;16.48;74.21
6094;BME280;19964;42.060;24.700;2023-04-26T06:21:31;96550.50;;;16.91;72.66
6094;BME280;19964;42.060;24.700;2023-04-26T06:23:57;96551.25;;;17.38;69.64
6094;BME280;19964;42.060;24.700;2023-04-26T06:26:24;96550.22;;;16.93;72.91
6094;BME280;19964;42.060;24.700;2023-04-26T06:28:51;96547.66;;;16.74;74.91
6094;BME280;19964;42.060;24.700;2023-04-26T06:31:17;96540.13;;;16.86;75.83
6094;BME280;19964;42.060;24.700;2023-04-26T06:33:46;96529.44;;;16.69;72.76
6094;BME280;19964;42.060;24.700;2023-04-26T06:36:14;96552.25;;;16.82;73.08
6094;BME280;19964;42.060;24.700;2023-04-26T06:38:40;96540.84;;;16.04;77.28
6094;BME280;19964;42.060;24.700;2023-04-26T06:41:07;96540.22;;;16.49;79.08
6094;BME280;19964;42.060;24.700;2023-04-26T06:43:34;96541.28;;;16.80;74.05
6094;BME280;19964;42.060;24.700;2023-04-26T06:46:00;96520.16;;;16.77;74.82
6094;BME280;19964;42.060;24.700;2023-04-26T06:48:27;96522.59;;;16.87;76.78
6094;BME280;19964;42.060;24.700;2023-04-26T06:50:54;96546.31;;;17.50;71.96
6094;BME280;19964;42.060;24.700;2023-04-26T06:53:22;96541.81;;;17.91;73.41
6094;BME280;19964;42.060;24.700;2023-04-26T06:55:49;96531.50;;;18.30;71.05
6094;BME280;19964;42.060;24.700;2023-04-26T06:58:17;96550.75;;;18.61;67.74
6094;BME280;19964;42.060;24.700;2023-04-26T07:00:44;96547.41;;;18.47;66.91
6094;BME280;19964;42.060;24.700;2023-04-26T07:03:10;96552.38;;;18.49;64.85
6094;BME280;19964;42.060;24.700;2023-04-26T07:05:38;96554.84;;;17.83;65.87
6094;BME280;19964;42.060;24.700;2023-04-26T07:08:05;96551.94;;;18.20;69.06
6094;BME280;19964;42.060;24.700;2023-04-26T07:10:33;96552.38;;;18.49;67.06
6094;BME280;19964;42.060;24.700;2023-04-26T07:13:00;96556.53;;;18.50;63.32
6094;BME280;19964;42.060;24.700;2023-04-26T07:15:27;96545.97;;;18.63;64.25
6094;BME280;19964;42.060;24.700;2023-04-26T07:17:53;96562.72;;;18.54;65.85
6094;BME280;19964;42.060;24.700;2023-04-26T07:20:20;96537.41;;;17.64;64.58
6094;BME280;19964;42.060;24.700;2023-04-26T07:22:48;96492.94;;;17.46;64.70
6094;BME280;19964;42.060;24.700;2023-04-26T07:25:15;96541.44;;;18.55;65.09
6094;BME280;19964;42.060;24.700;2023-04-26T07:27:43;96563.19;;;18.20;64.60
6094;BME280;19964;42.060;24.700;2023-04-26T07:30:10;96558.47;;;18.09;64.26
6094;BME280;19964;42.060;24.700;2023-04-26T07:32:37;96560.00;;;17.74;64.92
6094;BME280;19964;42.060;24.700;2023-04-26T07:35:06;96539.06;;;17.60;64.88
6094;BME280;19964;42.060;24.700;2023-04-26T07:37:34;96483.88;;;17.57;64.52
6094;BME280;19964;42.060;24.700;2023-04-26T07:40:01;96562.75;;;18.76;64.82
6094;BME280;19964;42.060;24.700;2023-04-26T07:42:29;96424.16;;;18.34;63.75
6094;BME280;19964;42.060;24.700;2023-04-26T07:44:57;96571.44;;;19.38;59.64
6094;BME280;19964;42.060;24.700;2023-04-26T07:47:24;96565.06;;;19.70;59.69
6094;BME280;19964;42.060;24.700;2023-04-26T07:49:52;96571.19;;;20.47;59.88
6094;BME280;19964;42.060;24.700;2023-04-26T07:52:19;96571.50;;;20.20;57.11
6094;BME280;19964;42.060;24.700;2023-04-26T07:54:46;96568.50;;;20.13;58.07
6094;BME280;19964;42.060;24.700;2023-04-26T07:57:12;96566.03;;;19.43;56.70
6094;BME280;19964;42.060;24.700;2023-04-26T07:59:39;96565.91;;;18.64;59.06
6094;BME280;19964;42.060;24.700;2023-04-26T08:02:10;96561.97;;;18.40;59.10
6094;BME280;19964;42.060;24.700;2023-04-26T08:04:37;96558.03;;;17.93;61.29
6094;BME280;19964;42.060;24.700;2023-04-26T08:07:04;96558.38;;;18.14;60.78
6094;BME280;19964;42.060;24.700;2023-04-26T08:09:30;96561.72;;;18.28;60.03
6094;BME280;19964;42.060;24.700;2023-04-26T08:11:57;96564.28;;;18.55;60.17
6094;BME280;19964;42.060;24.700;2023-04-26T08:14:24;96557.59;;;18.71;60.27
6094;BME280;19964;42.060;24.700;2023-04-26T08:16:50;96560.88;;;18.19;60.86
6094;BME280;19964;42.060;24.700;2023-04-26T08:19:19;96539.59;;;17.71;60.19
6094;BME280;19964;42.060;24.700;2023-04-26T08:21:45;96558.16;;;17.61;59.50
6094;BME280;19964;42.060;24.700;2023-04-26T08:24:12;96543.88;;;17.81;61.14
6094;BME280;19964;42.060;24.700;2023-04-26T08:26:39;96542.16;;;17.62;59.79
6094;BME280;19964;42.060;24.700;2023-04-26T08:29:06;96548.03;;;17.82;60.75
6094;BME280;19964;42.060;24.700;2023-04-26T08:31:33;96559.22;;;17.60;61.87
6094;BME280;19964;42.060;24.700;2023-04-26T08:34:00;96550.00;;;17.35;63.60
6094;BME280;19964;42.060;24.700;2023-04-26T08:36:28;96530.03;;;17.39;62.53
6094;BME280;19964;42.060;24.700;2023-04-26T08:38:56;96536.06;;;17.53;58.70
6094;BME280;19964;42.060;24.700;2023-04-26T08:41:24;96551.16;;;17.84;58.26
6094;BME280;19964;42.060;24.700;2023-04-26T08:43:53;96551.34;;;17.87;58.33
6094;BME280;19964;42.060;24.700;2023-04-26T08:46:25;96529.53;;;17.78;58.05
6094;BME280;19964;42.060;24.700;2023-04-26T08:48:58;96562.31;;;17.89;56.78
6094;BME280;19964;42.060;24.700;2023-04-26T08:51:32;96550.88;;;17.71;56.02
6094;BME280;19964;42.060;24.700;2023-04-26T08:54:02;96551.06;;;17.75;55.75
6094;BME280;19964;42.060;24.700;2023-04-26T08:56:30;96552.28;;;18.05;55.19
6094;BME280;19964;42.060;24.700;2023-04-26T08:58:59;96549.13;;;17.81;54.79
6094;BME280;19964;42.060;24.700;2023-04-26T09:01:27;96545.22;;;17.92;56.17
6094;BME280;19964;42.060;24.700;2023-04-26T09:03:55;96541.06;;;17.77;56.87
6094;BME280;19964;42.060;24.700;2023-04-26T09:06:22;96533.88;;;17.96;55.74
6094;BME280;19964;42.060;24.700;2023-04-26T09:08:52;96541.94;;;18.22;54.55
6094;BME280;19964;42.060;24.700;2023-04-26T09:11:20;96536.97;;;18.56;55.09
6094;BME280;19964;42.060;24.700;2023-04-26T09:13:47;96540.38;;;18.56;55.06
6094;BME280;19964;42.060;24.700;2023-04-26T09:16:14;96540.84;;;19.11;55.42
6094;BME280;19964;42.060;24.700;2023-04-26T09:18:48;96536.06;;;19.13;55.06
6094;BME280;19964;42.060;24.700;2023-04-26T09:21:15;96526.16;;;19.10;56.98
6094;BME280;19964;42.060;24.700;2023-04-26T09:23:57;96528.38;;;19.25;53.98
6094;BME280;19964;42.060;24.700;2023-04-26T09:26:24;96533.94;;;19.24;54.87
6094;BME280;19964;42.060;24.700;2023-04-26T09:29:09;96510.91;;;18.59;55.98
6094;BME280;19964;42.060;24.700;2023-04-26T09:31:38;96523.00;;;19.30;55.27
6094;BME280;19964;42.060;24.700;2023-04-26T09:34:05;96515.91;;;19.31;54.71
6094;BME280;19964;42.060;24.700;2023-04-26T09:36:48;96531.44;;;18.88;56.56
6094;BME280;19964;42.060;24.700;2023-04-26T09:39:28;96533.69;;;18.73;54.83
6094;BME280;19964;42.060;24.700;2023-04-26T09:41:59;96530.81;;;18.83;54.21
6094;BME280;19964;42.060;24.700;2023-04-26T09:44:28;96538.66;;;18.74;53.41
6094;BME280;19964;42.060;24.700;2023-04-26T09:47:02;96539.38;;;18.66;52.96
6094;BME280;19964;42.060;24.700;2023-04-26T09:49:31;96518.13;;;18.54;53.28
6094;BME280;19964;42.060;24.700;2023-04-26T09:52:02;96525.34;;;18.48;51.62
6094;BME280;19964;42.060;24.700;2023-04-26T09:54:41;96530.16;;;18.33;52.80
6094;BME280;19964;42.060;24.700;2023-04-26T09:57:09;96525.69;;;18.33;52.65
6094;BME280;19964;42.060;24.700;2023-04-26T09:59:43;96515.66;;;18.35;51.18
6094;BME280;19964;42.060;24.700;2023-04-26T10:02:16;96514.00;;;18.17;51.07
6094;BME280;19964;42.060;24.700;2023-04-26T10:04:45;96445.19;;;17.76;53.32
6094;BME280;19964;42.060;24.700;2023-04-26T10:07:13;96486.59;;;17.88;52.99
6094;BME280;19964;42.060;24.700;2023-04-26T10:09:44;96502.00;;;17.67;53.58
6094;BME280;19964;42.060;24.700;2023-04-26T10:12:13;96487.72;;;17.46;51.17
6094;BME280;19964;42.060;24.700;2023-04-26T10:14:41;96521.34;;;17.93;51.61
6094;BME280;19964;42.060;24.700;2023-04-26T10:17:09;96494.06;;;17.94;55.05
6094;BME280;19964;42.060;24.700;2023-04-26T10:19:37;96513.22;;;17.67;55.05
6094;BME280;19964;42.060;24.700;2023-04-26T10:22:06;96507.81;;;17.64;54.68
6094;BME280;19964;42.060;24.700;2023-04-26T10:24:36;96514.16;;;17.85;55.20
6094;BME280;19964;42.060;24.700;2023-04-26T10:27:04;96508.22;;;17.93;56.11
6094;BME280;19964;42.060;24.700;2023-04-26T10:30:05;96515.31;;;17.93;55.33
6094;BME280;19964;42.060;24.700;2023-04-26T10:36:08;96517.66;;;16.99;55.80
6094;BME280;19964;42.060;24.700;2023-04-26T10:38:38;96505.84;;;17.02;56.87
6094;BME280;19964;42.060;24.700;2023-04-26T10:41:29;96504.56;;;16.99;57.61
6094;BME280;19964;42.060;24.700;2023-04-26T10:43:59;96501.69;;;16.87;58.52
6094;BME280;19964;42.060;24.700;2023-04-26T10:46:36;96510.31;;;17.28;57.47
6094;BME280;19964;42.060;24.700;2023-04-26T10:49:14;96511.28;;;17.59;56.27
6094;BME280;19964;42.060;24.700;2023-04-26T10:52:10;96497.34;;;17.50;56.49
6094;BME280;19964;42.060;24.700;2023-04-26T10:54:54;96505.09;;;17.55;53.75
6094;BME280;19964;42.060;24.700;2023-04-26T10:57:22;96428.97;;;17.25;54.35
6094;BME280;19964;42.060;24.700;2023-04-26T11:03:04;96507.69;;;17.83;55.95
6094;BME280;19964;42.060;24.700;2023-04-26T11:08:29;96494.59;;;17.55;56.51
6094;BME280;19964;42.060;24.700;2023-04-26T11:10:58;96486.84;;;17.37;55.64
6094;BME280;19964;42.060;24.700;2023-04-26T11:13:36;96503.53;;;17.27;54.85
6094;BME280;19964;42.060;24.700;2023-04-26T11:16:05;96508.28;;;17.39;55.81
6094;BME280;19964;42.060;24.700;2023-04-26T11:18:35;96495.06;;;16.89;54.78
6094;BME280;19964;42.060;24.700;2023-04-26T11:21:03;96507.31;;;17.21;54.54
6094;BME280;19964;42.060;24.700;2023-04-26T11:23:31;96504.59;;;17.13;56.70
6094;BME280;19964;42.060;24.700;2023-04-26T11:25:58;96520.97;;;16.59;55.91
6094;BME280;19964;42.060;24.700;2023-04-26T11:28:28;96507.19;;;16.85;56.67
6094;BME280;19964;42.060;24.700;2023-04-26T11:30:55;96503.81;;;16.85;55.62
6094;BME280;19964;42.060;24.700;2023-04-26T11:33:23;96437.66;;;16.52;56.37
6094;BME280;19964;42.060;24.700;2023-04-26T11:35:52;96407.59;;;16.23;56.21
6094;BME280;19964;42.060;24.700;2023-04-26T11:38:21;96493.69;;;16.65;56.80
6094;BME280;19964;42.060;24.700;2023-04-26T11:40:52;96504.09;;;16.97;56.10
6094;BME280;19964;42.060;24.700;2023-04-26T11:43:20;96445.03;;;16.64;56.08
6094;BME280;19964;42.060;24.700;2023-04-26T11:45:47;96508.59;;;17.24;57.03
6094;BME280;19964;42.060;24.700;2023-04-26T11:48:14;96421.13;;;16.98;54.99
6094;BME280;19964;42.060;24.700;2023-04-26T11:50:41;96509.44;;;17.46;55.29
6094;BME280;19964;42.060;24.700;2023-04-26T11:53:09;96514.31;;;17.53;56.09
6094;BME280;19964;42.060;24.700;2023-04-26T11:55:38;96511.56;;;17.71;54.09
6094;BME280;19964;42.060;24.700;2023-04-26T11:58:10;96430.34;;;16.95;54.75
6094;BME280;19964;42.060;24.700;2023-04-26T12:00:57;96518.47;;;17.67;54.66
6094;BME280;19964;42.060;24.700;2023-04-26T12:03:28;96523.34;;;17.60;54.25
6094;BME280;19964;42.060;24.700;2023-04-26T12:05:55;96521.50;;;17.61;54.38
6094;BME280;19964;42.060;24.700;2023-04-26T12:08:26;96528.22;;;17.89;55.49
6094;BME280;19964;42.060;24.700;2023-04-26T12:10:55;96530.81;;;17.67;57.46
6094;BME280;19964;42.060;24.700;2023-04-26T12:13:24;96433.06;;;16.76;57.62
6094;BME280;19964;42.060;24.700;2023-04-26T12:15:51;96529.75;;;17.54;58.43
6094;BME280;19964;42.060;24.700;2023-04-26T12:18:18;96535.16;;;17.44;58.82
6094;BME280;19964;42.060;24.700;2023-04-26T12:20:45;96526.59;;;16.98;60.11
6094;BME280;19964;42.060;24.700;2023-04-26T12:23:13;96502.75;;;17.00;59.65
6094;BME280;19964;42.060;24.700;2023-04-26T12:25:52;96450.72;;;16.98;58.46
6094;BME280;19964;42.060;24.700;2023-04-26T12:28:20;96509.16;;;17.61;58.28
6094;BME280;19964;42.060;24.700;2023-04-26T12:30:47;96529.16;;;17.57;54.76
6094;BME280;19964;42.060;24.700;2023-04-26T12:33:15;96527.19;;;17.22;55.74
6094;BME280;19964;42.060;24.700;2023-04-26T12:35:44;96502.72;;;16.86;54.48
6094;BME280;19964;42.060;24.700;2023-04-26T12:38:12;96514.78;;;17.28;55.93
6094;BME280;19964;42.060;24.700;2023-04-26T12:40:41;96443.00;;;16.61;55.17
6094;BME280;19964;42.060;24.700;2023-04-26T12:43:08;96437.97;;;16.51;56.27
6094;BME280;19964;42.060;24.700;2023-04-26T12:45:35;96518.75;;;17.12;57.30
6094;BME280;19964;42.060;24.700;2023-04-26T12:48:02;96523.31;;;17.06;56.49
6094;BME280;19964;42.060;24.700;2023-04-26T12:50:29;96515.16;;;17.21;57.01
6094;BME280;19964;42.060;24.700;2023-04-26T12:52:56;96510.53;;;17.05;56.62
6094;BME280;19964;42.060;24.700;2023-04-26T12:55:22;96518.72;;;16.84;57.49
6094;BME280;19964;42.060;24.700;2023-04-26T12:57:51;96519.72;;;16.38;57.98
6094;BME280;19964;42.060;24.700;2023-04-26T13:00:18;96509.38;;;16.46;58.51
6094;BME280;19964;42.060;24.700;2023-04-26T13:02:46;96525.06;;;16.46;59.50
6094;BME280;19964;42.060;24.700;2023-04-26T13:05:12;96514.88;;;16.13;58.87
6094;BME280;19964;42.060;24.700;2023-04-26T13:07:42;96519.41;;;16.07;59.75
6094;BME280;19964;42.060;24.700;2023-04-26T13:10:09;96522.97;;;16.30;62.26
6094;BME280;19964;42.060;24.700;2023-04-26T13:12:36;96433.56;;;15.45;61.26
6094;BME280;19964;42.060;24.700;2023-04-26T13:15:06;96515.69;;;15.71;63.50
6094;BME280;19964;42.060;24.700;2023-04-26T13:17:34;96509.97;;;15.50;64.74